sensor_id;sensor_type;location;lat;lon;timestamp;P1;durP1;ratioP1;P2;durP2;ratioP2
14774;SDS011;7479;47.042;15.160;2023-09-08T05:45:21;10.17;;;6.13;;
14774;SDS011;7479;47.042;15.160;2023-09-08T06:03:00;13.60;;;6.70;;
14774;SDS011;7479;47.042;15.160;2023-09-08T06:17:54;11.67;;;6.70;;
14774;SDS011;7479;47.042;15.160;2023-09-08T06:32:14;10.23;;;6.17;;
14774;SDS011;7479;47.042;15.160;2023-09-08T06:37:10;9.67;;;6.20;;
14774;SDS011;7479;47.042;15.160;2023-09-08T06:52:04;17.77;;;5.97;;
14774;SDS011;7479;47.042;15.160;2023-09-08T06:56:58;8.40;;;5.97;;
14774;SDS011;7479;47.042;15.160;2023-09-08T07:12:09;7.10;;;5.53;;
14774;SDS011;7479;47.042;15.160;2023-09-08T07:26:29;6.35;;;5.35;;
14774;SDS011;7479;47.042;15.160;2023-09-08T07:41:09;8.23;;;5.72;;
14774;SDS011;7479;47.042;15.160;2023-09-08T08:10:58;6.85;;;5.13;;
14774;SDS011;7479;47.042;15.160;2023-09-08T08:24:55;7.13;;;4.97;;
14774;SDS011;7479;47.042;15.160;2023-09-08T08:29:49;5.97;;;4.65;;
14774;SDS011;7479;47.042;15.160;2023-09-08T08:43:45;5.15;;;4.65;;
14774;SDS011;7479;47.042;15.160;2023-09-08T08:48:41;6.03;;;4.80;;
14774;SDS011;7479;47.042;15.160;2023-09-08T08:53:37;5.55;;;4.53;;
14774;SDS011;7479;47.042;15.160;2023-09-08T09:07:32;6.50;;;4.50;;
14774;SDS011;7479;47.042;15.160;2023-09-08T09:12:26;5.25;;;4.75;;
14774;SDS011;7479;47.042;15.160;2023-09-08T09:17:19;9.20;;;7.07;;
14774;SDS011;7479;47.042;15.160;2023-09-08T09:22:13;8.68;;;5.80;;
14774;SDS011;7479;47.042;15.160;2023-09-08T09:27:08;8.07;;;5.63;;
14774;SDS011;7479;47.042;15.160;2023-09-08T09:32:02;5.10;;;4.53;;
14774;SDS011;7479;47.042;15.160;2023-09-08T09:36:57;7.45;;;5.30;;
14774;SDS011;7479;47.042;15.160;2023-09-08T09:41:52;5.45;;;4.47;;
14774;SDS011;7479;47.042;15.160;2023-09-08T09:46:50;5.00;;;4.50;;
14774;SDS011;7479;47.042;15.160;2023-09-08T09:51:45;6.50;;;4.95;;
14774;SDS011;7479;47.042;15.160;2023-09-08T09:56:41;5.25;;;4.70;;
14774;SDS011;7479;47.042;15.160;2023-09-08T10:01:37;5.10;;;4.28;;
14774;SDS011;7479;47.042;15.160;2023-09-08T10:06:36;5.00;;;4.47;;
14774;SDS011;7479;47.042;15.160;2023-09-08T10:11:33;5.25;;;4.00;;
14774;SDS011;7479;47.042;15.160;2023-09-08T10:16:31;5.55;;;4.85;;
14774;SDS011;7479;47.042;15.160;2023-09-08T10:21:27;4.65;;;4.25;;
14774;SDS011;7479;47.042;15.160;2023-09-08T10:26:25;4.82;;;4.20;;
14774;SDS011;7479;47.042;15.160;2023-09-08T10:31:21;5.22;;;4.00;;
14774;SDS011;7479;47.042;15.160;2023-09-08T10:36:18;8.70;;;4.10;;
14774;SDS011;7479;47.042;15.160;2023-09-08T10:41:28;4.63;;;4.15;;
14774;SDS011;7479;47.042;15.160;2023-09-08T10:46:25;6.10;;;4.15;;
14774;SDS011;7479;47.042;15.160;2023-09-08T10:51:20;4.43;;;4.03;;
14774;SDS011;7479;47.042;15.160;2023-09-08T10:56:14;6.05;;;3.95;;
14774;SDS011;7479;47.042;15.160;2023-09-08T11:01:15;4.53;;;4.10;;
14774;SDS011;7479;47.042;15.160;2023-09-08T11:06:10;5.00;;;4.60;;
14774;SDS011;7479;47.042;15.160;2023-09-08T11:11:04;5.95;;;4.20;;
14774;SDS011;7479;47.042;15.160;2023-09-08T11:15:59;5.10;;;4.30;;
14774;SDS011;7479;47.042;15.160;2023-09-08T11:20:55;5.18;;;4.38;;
14774;SDS011;7479;47.042;15.160;2023-09-08T11:25:49;5.35;;;4.47;;
14774;SDS011;7479;47.042;15.160;2023-09-08T11:30:47;4.25;;;3.85;;
14774;SDS011;7479;47.042;15.160;2023-09-08T11:35:41;4.78;;;4.07;;
14774;SDS011;7479;47.042;15.160;2023-09-08T11:40:37;4.93;;;4.45;;
14774;SDS011;7479;47.042;15.160;2023-09-08T11:45:33;5.57;;;4.03;;
14774;SDS011;7479;47.042;15.160;2023-09-08T11:50:28;6.10;;;4.30;;
14774;SDS011;7479;47.042;15.160;2023-09-08T11:55:24;4.43;;;4.03;;
14774;SDS011;7479;47.042;15.160;2023-09-08T12:00:20;4.93;;;4.18;;
14774;SDS011;7479;47.042;15.160;2023-09-08T12:05:20;6.20;;;4.07;;
14774;SDS011;7479;47.042;15.160;2023-09-08T12:10:15;4.63;;;3.90;;
14774;SDS011;7479;47.042;15.160;2023-09-08T12:15:09;4.43;;;4.03;;
14774;SDS011;7479;47.042;15.160;2023-09-08T12:20:13;7.47;;;5.90;;
14774;SDS011;7479;47.042;15.160;2023-09-08T12:25:08;5.00;;;3.70;;
14774;SDS011;7479;47.042;15.160;2023-09-08T12:30:02;4.22;;;3.92;;
14774;SDS011;7479;47.042;15.160;2023-09-08T12:34:57;4.60;;;3.83;;
14774;SDS011;7479;47.042;15.160;2023-09-08T12:39:54;4.32;;;3.92;;
14774;SDS011;7479;47.042;15.160;2023-09-08T12:44:48;4.95;;;4.40;;
14774;SDS011;7479;47.042;15.160;2023-09-08T12:49:42;5.75;;;4.85;;
14774;SDS011;7479;47.042;15.160;2023-09-08T12:54:35;4.88;;;4.38;;
14774;SDS011;7479;47.042;15.160;2023-09-08T12:59:31;6.72;;;4.30;;
14774;SDS011;7479;47.042;15.160;2023-09-08T13:04:24;5.80;;;4.20;;
14774;SDS011;7479;47.042;15.160;2023-09-08T13:09:18;5.65;;;4.25;;
14774;SDS011;7479;47.042;15.160;2023-09-08T13:14:12;5.75;;;3.90;;
14774;SDS011;7479;47.042;15.160;2023-09-08T13:19:07;4.75;;;4.35;;
14774;SDS011;7479;47.042;15.160;2023-09-08T13:24:03;4.70;;;4.30;;
14774;SDS011;7479;47.042;15.160;2023-09-08T13:28:59;6.22;;;4.20;;
14774;SDS011;7479;47.042;15.160;2023-09-08T13:33:53;5.97;;;4.28;;
14774;SDS011;7479;47.042;15.160;2023-09-08T13:38:48;4.50;;;4.10;;
14774;SDS011;7479;47.042;15.160;2023-09-08T13:43:42;5.57;;;4.00;;
14774;SDS011;7479;47.042;15.160;2023-09-08T13:48:38;4.78;;;3.92;;
14774;SDS011;7479;47.042;15.160;2023-09-08T13:53:33;5.55;;;3.92;;
14774;SDS011;7479;47.042;15.160;2023-09-08T13:58:39;6.40;;;4.00;;
14774;SDS011;7479;47.042;15.160;2023-09-08T14:03:39;5.72;;;4.18;;
14774;SDS011;7479;47.042;15.160;2023-09-08T14:08:52;4.70;;;4.07;;
14774;SDS011;7479;47.042;15.160;2023-09-08T14:13:50;4.00;;;3.63;;
14774;SDS011;7479;47.042;15.160;2023-09-08T14:18:44;4.20;;;3.88;;
14774;SDS011;7479;47.042;15.160;2023-09-08T14:23:38;4.43;;;4.03;;
14774;SDS011;7479;47.042;15.160;2023-09-08T14:28:32;7.18;;;4.10;;
14774;SDS011;7479;47.042;15.160;2023-09-08T14:33:27;7.30;;;4.45;;
14774;SDS011;7479;47.042;15.160;2023-09-08T14:38:20;6.43;;;5.00;;
14774;SDS011;7479;47.042;15.160;2023-09-08T14:43:14;4.38;;;4.03;;
14774;SDS011;7479;47.042;15.160;2023-09-08T14:48:08;4.57;;;4.15;;
14774;SDS011;7479;47.042;15.160;2023-09-08T14:53:03;4.75;;;4.15;;
14774;SDS011;7479;47.042;15.160;2023-09-08T14:57:58;6.03;;;4.30;;
14774;SDS011;7479;47.042;15.160;2023-09-08T15:02:51;4.78;;;4.25;;
14774;SDS011;7479;47.042;15.160;2023-09-08T15:07:45;6.00;;;4.10;;
14774;SDS011;7479;47.042;15.160;2023-09-08T15:12:40;4.65;;;4.20;;
14774;SDS011;7479;47.042;15.160;2023-09-08T15:17:33;5.07;;;4.28;;
14774;SDS011;7479;47.042;15.160;2023-09-08T15:22:27;7.53;;;4.20;;
14774;SDS011;7479;47.042;15.160;2023-09-08T15:27:21;5.35;;;4.85;;
14774;SDS011;7479;47.042;15.160;2023-09-08T15:32:16;4.63;;;4.07;;
14774;SDS011;7479;47.042;15.160;2023-09-08T15:37:09;7.55;;;4.72;;
14774;SDS011;7479;47.042;15.160;2023-09-08T15:42:03;6.45;;;4.38;;
14774;SDS011;7479;47.042;15.160;2023-09-08T15:46:56;7.15;;;4.70;;
14774;SDS011;7479;47.042;15.160;2023-09-08T15:51:51;4.70;;;4.07;;
14774;SDS011;7479;47.042;15.160;2023-09-08T15:57:05;6.18;;;4.32;;
14774;SDS011;7479;47.042;15.160;2023-09-08T16:02:00;4.63;;;4.07;;
14774;SDS011;7479;47.042;15.160;2023-09-08T16:06:55;4.90;;;4.50;;
14774;SDS011;7479;47.042;15.160;2023-09-08T16:11:48;4.88;;;4.07;;
14774;SDS011;7479;47.042;15.160;2023-09-08T16:16:42;7.30;;;4.15;;
14774;SDS011;7479;47.042;15.160;2023-09-08T16:21:35;5.00;;;3.85;;
14774;SDS011;7479;47.042;15.160;2023-09-08T16:26:30;6.93;;;4.78;;
14774;SDS011;7479;47.042;15.160;2023-09-08T16:31:24;7.82;;;4.80;;
14774;SDS011;7479;47.042;15.160;2023-09-08T16:36:17;5.32;;;4.82;;
14774;SDS011;7479;47.042;15.160;2023-09-08T16:41:11;6.28;;;4.78;;
14774;SDS011;7479;47.042;15.160;2023-09-08T16:46:06;5.40;;;4.55;;
14774;SDS011;7479;47.042;15.160;2023-09-08T16:51:00;7.05;;;5.15;;
14774;SDS011;7479;47.042;15.160;2023-09-08T16:55:54;9.93;;;6.57;;
14774;SDS011;7479;47.042;15.160;2023-09-08T17:00:48;5.22;;;4.72;;
14774;SDS011;7479;47.042;15.160;2023-09-08T17:05:43;7.43;;;5.50;;
14774;SDS011;7479;47.042;15.160;2023-09-08T17:10:37;7.55;;;4.93;;
14774;SDS011;7479;47.042;15.160;2023-09-08T17:15:30;8.45;;;5.05;;
14774;SDS011;7479;47.042;15.160;2023-09-08T17:20:24;9.73;;;5.47;;
14774;SDS011;7479;47.042;15.160;2023-09-08T17:25:21;5.55;;;5.03;;
14774;SDS011;7479;47.042;15.160;2023-09-08T17:30:14;6.20;;;5.07;;
14774;SDS011;7479;47.042;15.160;2023-09-08T17:35:08;5.90;;;5.40;;
14774;SDS011;7479;47.042;15.160;2023-09-08T17:40:02;8.25;;;5.18;;
14774;SDS011;7479;47.042;15.160;2023-09-08T17:44:58;8.07;;;5.97;;
14774;SDS011;7479;47.042;15.160;2023-09-08T17:49:51;10.18;;;6.82;;
14774;SDS011;7479;47.042;15.160;2023-09-08T17:54:44;7.43;;;5.60;;
14774;SDS011;7479;47.042;15.160;2023-09-08T17:59:38;8.55;;;5.78;;
14774;SDS011;7479;47.042;15.160;2023-09-08T18:04:34;9.00;;;5.93;;
14774;SDS011;7479;47.042;15.160;2023-09-08T18:09:28;11.20;;;6.10;;
14774;SDS011;7479;47.042;15.160;2023-09-08T18:14:22;7.45;;;6.35;;
14774;SDS011;7479;47.042;15.160;2023-09-08T18:19:16;7.10;;;6.07;;
14774;SDS011;7479;47.042;15.160;2023-09-08T18:24:11;9.57;;;6.60;;
14774;SDS011;7479;47.042;15.160;2023-09-08T18:29:04;8.48;;;6.05;;
14774;SDS011;7479;47.042;15.160;2023-09-08T18:33:58;8.93;;;5.95;;
14774;SDS011;7479;47.042;15.160;2023-09-08T18:38:52;6.50;;;5.90;;
14774;SDS011;7479;47.042;15.160;2023-09-08T18:43:47;8.55;;;6.43;;
14774;SDS011;7479;47.042;15.160;2023-09-08T18:48:41;9.68;;;6.50;;
14774;SDS011;7479;47.042;15.160;2023-09-08T18:53:34;10.15;;;7.07;;
14774;SDS011;7479;47.042;15.160;2023-09-08T18:58:29;9.93;;;6.88;;
14774;SDS011;7479;47.042;15.160;2023-09-08T19:03:26;7.15;;;6.45;;
14774;SDS011;7479;47.042;15.160;2023-09-08T19:08:19;6.70;;;6.05;;
14774;SDS011;7479;47.042;15.160;2023-09-08T19:13:13;13.27;;;6.40;;
14774;SDS011;7479;47.042;15.160;2023-09-08T19:18:06;8.77;;;6.80;;
14774;SDS011;7479;47.042;15.160;2023-09-08T19:23:02;8.93;;;6.22;;
14774;SDS011;7479;47.042;15.160;2023-09-08T19:27:55;9.52;;;6.10;;
14774;SDS011;7479;47.042;15.160;2023-09-08T19:32:49;11.27;;;6.72;;
